Time;durP1;ratioP1;P1;durP2;ratioP2;P2;SDS_P1;SDS_P2;PMS_P1;PMS_P2;Temp;Humidity;BMP_temperature;BMP_pressure;BME280_temperature;BME280_humidity;BME280_pressure;Samples;Min_cycle;Max_cycle;Signal;HPM_P1;HPM_P2
2021/06/08 00:00:21;;;;;;;2.22;2.03;;;15.50;99.90;;;;;;4875950;29;21027;-77
2021/06/08 00:02:47;;;;;;;2.63;2.42;;;15.50;99.90;;;;;;4876441;29;21014;-77
2021/06/08 00:05:13;;;;;;;2.13;2.03;;;15.40;99.90;;;;;;4877540;29;20923;-77
2021/06/08 00:07:38;;;;;;;2.33;2.20;;;15.40;99.90;;;;;;4892810;29;20409;-78
2021/06/08 00:10:05;;;;;;;2.55;2.38;;;15.40;99.90;;;;;;4876853;29;20450;-77
2021/06/08 00:12:31;;;;;;;2.85;2.65;;;15.40;99.90;;;;;;4874363;29;20487;-77
2021/06/08 00:14:56;;;;;;;2.70;2.50;;;15.40;99.90;;;;;;4877489;29;20937;-77
2021/06/08 00:17:22;;;;;;;3.28;2.70;;;15.30;99.90;;;;;;4877252;29;20414;-78
2021/06/08 00:19:48;;;;;;;2.30;2.00;;;15.30;99.90;;;;;;4890264;29;20407;-77
2021/06/08 00:22:14;;;;;;;2.78;2.58;;;15.30;99.90;;;;;;4891403;29;20425;-78
2021/06/08 00:24:40;;;;;;;2.58;2.35;;;15.30;99.90;;;;;;4874613;29;20403;-78
2021/06/08 00:27:06;;;;;;;2.20;2.10;;;15.20;99.90;;;;;;4865935;29;20407;-77
2021/06/08 00:29:32;;;;;;;2.53;2.33;;;15.20;99.90;;;;;;4877047;29;20463;-77
2021/06/08 00:31:57;;;;;;;2.40;2.30;;;15.10;99.90;;;;;;4874272;29;20420;-77
2021/06/08 00:34:23;;;;;;;2.70;2.50;;;15.00;99.90;;;;;;4877587;29;20488;-78
2021/06/08 00:36:48;;;;;;;2.27;2.07;;;14.90;99.90;;;;;;4893430;29;20408;-77
2021/06/08 00:39:14;;;;;;;2.58;2.38;;;14.80;99.90;;;;;;4874475;29;21133;-75
2021/06/08 00:41:42;;;;;;;2.80;2.60;;;14.80;99.90;;;;;;4853850;29;20903;-78
2021/06/08 00:44:11;;;;;;;2.60;2.40;;;14.80;99.90;;;;;;4891194;29;20405;-77
2021/06/08 00:46:37;;;;;;;2.58;2.38;;;14.70;99.90;;;;;;4877724;29;20424;-77
2021/06/08 00:49:03;;;;;;;2.97;2.75;;;14.80;99.90;;;;;;4891821;29;20397;-79
2021/06/08 00:51:28;;;;;;;2.63;2.43;;;14.80;99.90;;;;;;4876792;29;20424;-81
2021/06/08 00:53:54;;;;;;;2.65;2.45;;;14.80;99.90;;;;;;4875311;29;20426;-77
2021/06/08 00:56:20;;;;;;;3.00;2.80;;;14.70;99.90;;;;;;4859590;29;20411;-78
2021/06/08 00:58:46;;;;;;;2.67;2.47;;;14.60;99.90;;;;;;4872836;29;20449;-79
2021/06/08 01:01:12;;;;;;;2.83;2.63;;;14.50;99.90;;;;;;4905569;29;20413;-81
2021/06/08 01:03:37;;;;;;;2.70;2.50;;;14.50;99.90;;;;;;4873889;29;21015;-77
2021/06/08 01:06:03;;;;;;;3.38;3.08;;;14.50;99.90;;;;;;4892780;29;20484;-77
2021/06/08 01:08:29;;;;;;;3.30;3.10;;;14.40;99.90;;;;;;4878670;29;20414;-77
2021/06/08 01:10:55;;;;;;;3.13;2.93;;;14.40;99.90;;;;;;4878100;29;20392;-77
2021/06/08 01:13:21;;;;;;;2.83;2.63;;;14.30;99.90;;;;;;4888453;29;20415;-77
2021/06/08 01:15:48;;;;;;;2.55;2.40;;;14.30;99.90;;;;;;4890136;29;20405;-79
2021/06/08 01:18:14;;;;;;;2.95;2.75;;;14.50;99.90;;;;;;4893201;29;20450;-78
2021/06/08 01:20:40;;;;;;;3.20;3.00;;;14.30;99.90;;;;;;4892447;29;20990;-78
2021/06/08 01:23:05;;;;;;;3.00;2.80;;;14.20;99.90;;;;;;4876196;29;20965;-76
2021/06/08 01:25:31;;;;;;;3.10;2.80;;;14.20;99.90;;;;;;4892104;29;20412;-77
2021/06/08 01:27:57;;;;;;;3.30;3.00;;;14.20;99.90;;;;;;4876881;29;20426;-77
2021/06/08 01:30:24;;;;;;;2.92;2.70;;;14.10;99.90;;;;;;4891327;29;20403;-77
2021/06/08 01:32:49;;;;;;;2.67;2.47;;;14.00;99.90;;;;;;4891145;29;20406;-78
2021/06/08 01:35:15;;;;;;;3.20;3.00;;;14.10;99.90;;;;;;4876069;29;20415;-77
2021/06/08 01:37:40;;;;;;;3.00;2.80;;;14.20;99.90;;;;;;4892720;29;20405;-77
2021/06/08 01:40:07;;;;;;;3.05;2.80;;;14.10;99.90;;;;;;4874966;29;20450;-77
2021/06/08 01:42:32;;;;;;;3.10;2.83;;;14.00;99.90;;;;;;4875366;29;20409;-77
2021/06/08 01:44:58;;;;;;;3.03;2.77;;;14.00;99.90;;;;;;4890912;29;20409;-77
2021/06/08 01:47:24;;;;;;;3.60;3.30;;;14.10;99.90;;;;;;4873535;29;20462;-77
2021/06/08 01:49:49;;;;;;;3.27;2.97;;;14.10;99.90;;;;;;4876491;29;20398;-77
2021/06/08 01:52:55;;;;;;;3.15;2.95;;;14.00;99.90;;;;;;4888178;29;20948;-78
2021/06/08 01:55:31;;;;;;;4.45;2.70;;;14.00;99.90;;;;;;4906134;29;20444;-77
2021/06/08 01:58:06;;;;;;;3.57;2.73;;;13.90;99.90;;;;;;4905682;29;20406;-79
2021/06/08 02:00:37;;;;;;;4.72;3.30;;;13.90;99.90;;;;;;4875535;29;20435;-78
2021/06/08 02:03:30;;;;;;;3.13;2.93;;;13.80;99.90;;;;;;4874507;29;20431;-77
2021/06/08 02:05:58;;;;;;;3.20;3.00;;;13.80;99.90;;;;;;4892539;29;20413;-78
2021/06/08 02:08:38;;;;;;;2.90;2.70;;;13.80;99.90;;;;;;4894699;29;20417;-78
2021/06/08 02:11:21;;;;;;;3.85;3.08;;;13.80;99.90;;;;;;4894258;29;20405;-77
2021/06/08 02:13:51;;;;;;;2.78;2.58;;;13.70;99.90;;;;;;4874815;29;20542;-77
2021/06/08 02:16:20;;;;;;;3.42;3.15;;;13.80;99.90;;;;;;4895494;29;20431;-77
2021/06/08 02:18:46;;;;;;;3.45;3.15;;;13.70;99.90;;;;;;4870598;29;20403;-78
2021/06/08 02:21:12;;;;;;;2.90;2.70;;;13.70;99.90;;;;;;4891115;29;20409;-78
2021/06/08 02:23:38;;;;;;;3.07;2.87;;;13.60;99.90;;;;;;4890180;29;20421;-77
2021/06/08 02:26:03;;;;;;;3.00;2.80;;;13.60;99.90;;;;;;4885457;29;20405;-78
2021/06/08 02:28:31;;;;;;;2.90;2.70;;;13.60;99.90;;;;;;4911872;29;20408;-77
2021/06/08 02:30:57;;;;;;;2.90;2.70;;;13.50;99.90;;;;;;4875015;29;20414;-79
2021/06/08 02:33:24;;;;;;;2.92;2.72;;;13.50;99.90;;;;;;4874483;29;20411;-77
2021/06/08 02:35:50;;;;;;;3.60;3.30;;;13.50;99.90;;;;;;4891831;29;20413;-77
2021/06/08 02:38:15;;;;;;;4.23;3.03;;;13.40;99.90;;;;;;4890598;29;20411;-78
2021/06/08 02:40:41;;;;;;;3.60;3.30;;;13.40;99.90;;;;;;4874861;29;20478;-77
2021/06/08 02:43:07;;;;;;;4.00;3.60;;;13.30;99.90;;;;;;4888603;29;20410;-76
2021/06/08 02:45:33;;;;;;;2.80;2.60;;;13.30;99.90;;;;;;4860099;29;20779;-77
2021/06/08 02:47:58;;;;;;;3.50;3.20;;;13.30;99.90;;;;;;4889197;29;20407;-77
2021/06/08 02:50:24;;;;;;;3.23;2.97;;;13.20;99.90;;;;;;4861185;29;20422;-78
2021/06/08 02:52:54;;;;;;;3.40;3.10;;;13.30;99.90;;;;;;4876448;29;20405;-79
2021/06/08 02:55:21;;;;;;;3.50;3.20;;;13.30;99.90;;;;;;4876650;29;20917;-79
2021/06/08 02:57:47;;;;;;;3.72;3.42;;;13.30;99.90;;;;;;4891302;29;20417;-78
2021/06/08 03:00:13;;;;;;;3.40;3.10;;;13.20;99.90;;;;;;4875588;29;20417;-78
2021/06/08 03:02:40;;;;;;;3.70;3.40;;;13.20;99.90;;;;;;4888597;29;20938;-77
2021/06/08 03:05:16;;;;;;;3.60;3.30;;;13.30;99.90;;;;;;4875654;29;20424;-77
2021/06/08 03:07:45;;;;;;;3.70;3.40;;;13.30;99.90;;;;;;4890683;29;20401;-77
2021/06/08 03:10:15;;;;;;;3.47;3.17;;;13.20;99.90;;;;;;4875561;29;20401;-76
2021/06/08 03:12:52;;;;;;;3.22;2.92;;;13.20;99.90;;;;;;4858574;29;20410;-77
2021/06/08 03:15:18;;;;;;;3.58;3.28;;;13.20;99.90;;;;;;4886608;29;20420;-76
2021/06/08 03:17:44;;;;;;;3.60;3.30;;;13.20;99.90;;;;;;4879748;29;20412;-77
2021/06/08 03:20:38;;;;;;;3.80;3.50;;;13.10;99.90;;;;;;4910463;29;20990;-77
2021/06/08 03:23:08;;;;;;;4.03;3.38;;;13.10;99.90;;;;;;4892713;29;20448;-77
2021/06/08 03:25:34;;;;;;;3.00;2.80;;;13.20;99.90;;;;;;4876882;29;20428;-77
2021/06/08 03:28:00;;;;;;;3.90;3.60;;;13.10;99.90;;;;;;4875976;29;20848;-79
2021/06/08 03:30:26;;;;;;;3.83;3.53;;;13.20;99.90;;;;;;4882206;29;20415;-76
2021/06/08 03:32:51;;;;;;;4.43;4.03;;;13.30;99.90;;;;;;4876292;29;20418;-78
2021/06/08 03:35:18;;;;;;;3.83;3.53;;;13.30;99.90;;;;;;4894347;29;20405;-78
2021/06/08 03:37:44;;;;;;;4.38;3.97;;;13.30;99.90;;;;;;4878856;29;20472;-78
2021/06/08 03:40:10;;;;;;;3.97;3.67;;;13.40;99.90;;;;;;4864170;29;20423;-77
2021/06/08 03:42:36;;;;;;;3.50;3.20;;;13.50;99.90;;;;;;4875387;29;20624;-78
2021/06/08 03:45:02;;;;;;;4.78;3.60;;;13.50;99.90;;;;;;4866986;29;20405;-78
2021/06/08 03:47:27;;;;;;;3.72;3.42;;;13.60;99.90;;;;;;4897134;29;20397;-78
2021/06/08 03:49:54;;;;;;;4.17;3.77;;;13.70;99.90;;;;;;4878658;29;20945;-79
2021/06/08 03:52:20;;;;;;;3.92;3.63;;;13.70;99.90;;;;;;4893022;29;20428;-78
2021/06/08 03:54:45;;;;;;;4.00;3.70;;;13.80;99.90;;;;;;4878062;29;20402;-78
2021/06/08 03:57:11;;;;;;;3.97;3.65;;;13.90;99.90;;;;;;4878894;29;20409;-78
2021/06/08 03:59:37;;;;;;;3.70;3.40;;;14.00;99.90;;;;;;4878471;29;20397;-79
2021/06/08 04:02:03;;;;;;;3.38;3.08;;;14.10;99.90;;;;;;4875491;29;20409;-77
2021/06/08 04:04:30;;;;;;;4.05;3.72;;;14.10;99.90;;;;;;4906607;29;20424;-77
2021/06/08 04:06:55;;;;;;;3.67;3.38;;;14.10;99.90;;;;;;4893974;29;20412;-78
2021/06/08 04:09:22;;;;;;;4.53;4.07;;;14.20;99.90;;;;;;4877755;29;20520;-78
2021/06/08 04:11:49;;;;;;;3.90;3.60;;;14.30;99.90;;;;;;4869605;29;20468;-74
2021/06/08 04:14:14;;;;;;;3.72;3.42;;;14.40;99.90;;;;;;4877295;29;20861;-78
2021/06/08 04:16:40;;;;;;;4.22;3.83;;;14.50;99.90;;;;;;4892536;29;20427;-78
2021/06/08 04:19:09;;;;;;;4.47;4.07;;;14.50;99.90;;;;;;4877840;29;20898;-78
2021/06/08 04:21:35;;;;;;;5.90;4.43;;;14.60;99.90;;;;;;4877703;29;20482;-78
2021/06/08 04:24:03;;;;;;;4.53;4.13;;;14.70;99.90;;;;;;4890540;29;20449;-81
2021/06/08 04:26:28;;;;;;;3.88;3.55;;;14.80;99.90;;;;;;4878030;29;20437;-78
2021/06/08 04:28:54;;;;;;;4.67;4.17;;;14.90;99.90;;;;;;4909853;29;20460;-77
2021/06/08 04:31:21;;;;;;;4.57;4.18;;;15.00;99.90;;;;;;4875360;29;20422;-78
2021/06/08 04:33:46;;;;;;;3.95;3.65;;;15.10;99.90;;;;;;4875845;29;20469;-80
2021/06/08 04:36:16;;;;;;;3.97;3.58;;;15.20;99.90;;;;;;4862754;29;20397;-80
2021/06/08 04:38:41;;;;;;;3.78;3.47;;;15.30;99.90;;;;;;4876743;29;20415;-79
2021/06/08 04:41:07;;;;;;;4.10;3.80;;;15.40;99.90;;;;;;4861331;29;20411;-82
2021/06/08 04:43:33;;;;;;;4.18;3.78;;;15.60;99.90;;;;;;4859850;29;20421;-80
2021/06/08 04:46:05;;;;;;;4.30;3.90;;;15.80;99.90;;;;;;4876011;29;20413;-79
2021/06/08 04:48:32;;;;;;;4.00;3.60;;;15.90;99.90;;;;;;4877839;29;20496;-81
2021/06/08 04:50:57;;;;;;;4.55;4.10;;;15.90;99.90;;;;;;4892872;29;21203;-79
2021/06/08 04:53:23;;;;;;;4.40;4.00;;;16.10;99.90;;;;;;4874376;29;20414;-81
2021/06/08 04:55:49;;;;;;;4.47;4.07;;;16.20;99.90;;;;;;4876231;29;20417;-82
2021/06/08 04:58:15;;;;;;;3.80;3.50;;;16.30;99.90;;;;;;4877121;29;20499;-80
2021/06/08 05:00:54;;;;;;;4.47;4.07;;;16.50;99.90;;;;;;4873115;28;20403;-80
2021/06/08 05:03:21;;;;;;;4.20;3.80;;;16.70;99.90;;;;;;4902665;29;20433;-80
2021/06/08 05:05:52;;;;;;;4.53;4.13;;;16.90;99.90;;;;;;4875550;29;20486;-80
2021/06/08 05:08:49;;;;;;;4.65;4.25;;;17.00;99.90;;;;;;4861496;29;20489;-79
2021/06/08 05:11:22;;;;;;;4.03;3.72;;;17.10;99.90;;;;;;4891244;29;20405;-80
2021/06/08 05:13:48;;;;;;;4.47;4.07;;;17.30;99.90;;;;;;4890434;29;20413;-80
2021/06/08 05:16:15;;;;;;;4.65;4.13;;;17.50;99.90;;;;;;4891873;29;20420;-80
2021/06/08 05:18:48;;;;;;;3.78;3.47;;;17.60;99.90;;;;;;4878078;29;20405;-82
2021/06/08 05:21:15;;;;;;;3.88;3.58;;;17.80;99.90;;;;;;4891305;29;20413;-81
2021/06/08 05:23:41;;;;;;;4.28;3.97;;;18.00;99.90;;;;;;4879419;29;20465;-85
2021/06/08 05:26:06;;;;;;;4.37;3.60;;;18.10;99.90;;;;;;4887268;29;20411;-86
2021/06/08 05:28:35;;;;;;;3.97;3.60;;;18.30;99.90;;;;;;4902957;29;20413;-82
2021/06/08 05:31:00;;;;;;;4.65;4.25;;;18.50;99.90;;;;;;4897202;29;20931;-82
2021/06/08 05:33:27;;;;;;;4.50;4.10;;;18.60;99.90;;;;;;4887509;29;20409;-82
2021/06/08 05:35:56;;;;;;;4.00;3.70;;;18.80;99.90;;;;;;4892363;29;20961;-80
2021/06/08 05:38:32;;;;;;;4.00;3.70;;;19.00;99.90;;;;;;4869507;29;20423;-80
2021/06/08 05:41:07;;;;;;;3.90;3.60;;;19.10;99.90;;;;;;4911062;29;20412;-80
2021/06/08 05:43:33;;;;;;;3.78;3.47;;;19.30;99.90;;;;;;4874520;29;20413;-82
2021/06/08 05:45:59;;;;;;;5.50;3.87;;;19.50;99.90;;;;;;4892255;29;20997;-80
2021/06/08 05:48:26;;;;;;;4.30;3.97;;;19.70;99.90;;;;;;4862499;29;20413;-80
2021/06/08 05:50:59;;;;;;;4.00;3.60;;;19.90;99.90;;;;;;4878141;29;20428;-80
2021/06/08 05:53:25;;;;;;;5.65;3.85;;;20.00;99.90;;;;;;4890578;29;20779;-80
2021/06/08 05:55:51;;;;;;;4.35;3.75;;;20.20;99.90;;;;;;4869728;29;20422;-81
2021/06/08 05:58:24;;;;;;;3.97;3.67;;;20.40;99.90;;;;;;4877027;29;20492;-80
2021/06/08 06:00:51;;;;;;;3.45;3.15;;;20.70;99.90;;;;;;4892543;29;20416;-82
2021/06/08 06:03:17;;;;;;;7.47;3.85;;;20.90;99.90;;;;;;4892290;29;20429;-81
2021/06/08 06:05:42;;;;;;;3.17;2.88;;;21.10;99.90;;;;;;4893294;29;20413;-82
2021/06/08 06:08:08;;;;;;;3.90;3.30;;;21.30;99.90;;;;;;4866618;29;20554;-82
2021/06/08 06:10:34;;;;;;;3.65;3.35;;;21.60;99.90;;;;;;4887249;29;20414;-84
2021/06/08 06:13:02;;;;;;;3.83;3.53;;;21.60;99.90;;;;;;4885858;29;20996;-84
2021/06/08 06:15:28;;;;;;;4.00;3.70;;;21.60;99.90;;;;;;4902035;29;20417;-84
2021/06/08 06:17:54;;;;;;;3.60;3.30;;;21.60;99.90;;;;;;4921305;29;20421;-92
2021/06/08 06:20:22;;;;;;;3.78;3.47;;;21.80;99.90;;;;;;4905718;29;20401;-91
2021/06/08 06:22:50;;;;;;;3.45;3.15;;;22.10;99.90;;;;;;4905519;29;20437;-88
2021/06/08 06:25:16;;;;;;;3.50;3.20;;;22.10;99.90;;;;;;4054930;29;10000901;-86
2021/06/08 06:27:43;;;;;;;3.25;3.05;;;22.30;99.90;;;;;;4901990;29;20425;-85
2021/06/08 06:30:11;;;;;;;3.33;3.03;;;22.90;99.90;;;;;;4900981;29;20409;-86
2021/06/08 06:32:37;;;;;;;3.78;3.40;;;23.00;99.90;;;;;;4883327;29;20406;-89
2021/06/08 06:35:04;;;;;;;3.37;3.07;;;23.20;99.90;;;;;;4899047;29;20395;-87
2021/06/08 06:37:33;;;;;;;3.55;3.25;;;23.40;99.90;;;;;;4900453;29;20375;-86
2021/06/08 06:40:00;;;;;;;3.60;3.30;;;23.60;99.90;;;;;;4884633;29;20408;-90
2021/06/08 06:42:33;;;;;;;3.92;3.63;;;23.80;99.90;;;;;;4881445;29;20463;-87
2021/06/08 06:45:03;;;;;;;4.20;3.85;;;23.60;99.90;;;;;;4925133;29;20409;-89
2021/06/08 06:47:31;;;;;;;4.10;3.80;;;23.30;99.90;;;;;;4896463;29;20440;-84
2021/06/08 06:50:03;;;;;;;4.38;3.97;;;23.50;99.90;;;;;;4922422;29;21997;-83
2021/06/08 06:52:31;;;;;;;4.05;3.75;;;23.50;99.90;;;;;;4910071;28;20395;-83
2021/06/08 06:55:09;;;;;;;4.22;3.92;;;23.70;99.90;;;;;;4929199;29;20391;-85
2021/06/08 06:57:45;;;;;;;4.78;3.92;;;23.80;99.90;;;;;;4922035;29;20460;-88
2021/06/08 07:00:15;;;;;;;5.53;3.60;;;23.90;99.90;;;;;;4905945;29;20404;-85
2021/06/08 07:02:50;;;;;;;4.30;3.60;;;23.70;99.90;;;;;;4904389;29;20433;-83
2021/06/08 07:05:25;;;;;;;4.17;3.73;;;24.00;99.90;;;;;;4914864;29;20411;-82
2021/06/08 07:08:23;;;;;;;3.72;3.42;;;24.30;99.90;;;;;;4897936;29;20434;-82
2021/06/08 07:10:57;;;;;;;4.47;4.07;;;24.40;99.90;;;;;;4888792;29;20406;-86
2021/06/08 07:13:31;;;;;;;3.67;3.37;;;24.40;99.90;;;;;;4907824;28;20462;-86
2021/06/08 07:16:11;;;;;;;4.28;3.50;;;24.50;99.90;;;;;;4910290;28;20432;-86
2021/06/08 07:25:20;;;;;;;3.63;3.33;;;25.20;99.90;;;;;;4922538;23;20422;-81
2021/06/08 07:27:46;;;;;;;3.70;3.40;;;25.80;99.90;;;;;;4880647;29;20406;-81
2021/06/08 07:33:37;;;;;;;3.63;3.33;;;25.70;99.90;;;;;;4879511;29;20498;-82
2021/06/08 07:36:20;;;;;;;3.40;3.10;;;26.00;99.90;;;;;;4886973;29;20409;-81
2021/06/08 07:39:06;;;;;;;3.10;2.80;;;26.30;99.90;;;;;;4827251;29;20409;-81
2021/06/08 07:41:44;;;;;;;3.83;3.47;;;26.30;99.90;;;;;;4868531;29;20886;-81
2021/06/08 07:48:52;;;;;;;3.55;3.25;;;26.50;99.90;;;;;;4866229;29;20637;-85
2021/06/08 07:56:11;;;;;;;3.80;3.50;;;26.70;99.90;;;;;;4901057;29;20408;-80
2021/06/08 08:02:41;;;;;;;3.37;3.13;;;26.90;99.90;;;;;;4873862;29;20488;-86
2021/06/08 08:05:49;;;;;;;4.38;3.20;;;27.10;99.90;;;;;;4884049;29;20418;-82
2021/06/08 08:09:39;;;;;;;2.70;2.50;;;27.50;99.90;;;;;;4880719;29;20456;-82
2021/06/08 08:12:37;;;;;;;2.67;2.45;;;28.00;98.90;;;;;;4882094;29;20444;-82
2021/06/08 08:15:07;;;;;;;2.85;2.63;;;28.30;98.00;;;;;;4850632;29;20433;-81
2021/06/08 08:17:33;;;;;;;2.65;2.45;;;28.30;95.30;;;;;;4878456;29;20408;-80
2021/06/08 08:19:59;;;;;;;3.65;2.83;;;28.50;93.20;;;;;;4877764;29;20413;-82
2021/06/08 08:22:25;;;;;;;2.65;2.45;;;28.70;94.80;;;;;;4866757;29;20405;-81
2021/06/08 08:24:51;;;;;;;3.13;2.58;;;28.70;95.30;;;;;;4884024;29;20416;-84
2021/06/08 08:27:17;;;;;;;4.18;2.72;;;29.00;96.30;;;;;;4888713;29;20417;-84
2021/06/08 08:29:45;;;;;;;3.83;2.78;;;29.10;94.90;;;;;;4891433;29;20421;-85
2021/06/08 08:32:12;;;;;;;2.87;2.67;;;29.30;93.80;;;;;;4882564;29;20471;-82
2021/06/08 08:34:39;;;;;;;3.25;3.05;;;29.60;93.50;;;;;;4882517;29;20408;-84
2021/06/08 08:37:05;;;;;;;2.83;2.63;;;29.70;93.30;;;;;;4849772;29;20404;-82
2021/06/08 08:39:31;;;;;;;2.53;2.33;;;29.90;92.40;;;;;;4877449;29;20420;-83
2021/06/08 08:41:57;;;;;;;2.20;2.05;;;30.00;85.90;;;;;;4878415;29;21380;-82
2021/06/08 08:44:23;;;;;;;2.17;2.08;;;29.80;78.40;;;;;;4876400;29;20425;-82
2021/06/08 08:46:48;;;;;;;2.20;2.00;;;30.00;75.20;;;;;;4911533;29;20476;-82
2021/06/08 08:49:14;;;;;;;2.28;2.05;;;29.90;76.40;;;;;;4878431;29;20420;-81
2021/06/08 08:51:42;;;;;;;2.53;2.00;;;30.10;72.80;;;;;;4879210;29;20949;-83
2021/06/08 08:54:08;;;;;;;2.08;1.98;;;30.50;76.20;;;;;;4863040;29;20435;-84
2021/06/08 08:56:36;;;;;;;2.08;1.98;;;30.80;70.90;;;;;;4873205;29;20414;-81
2021/06/08 08:59:07;;;;;;;2.10;2.00;;;30.80;71.90;;;;;;4875287;29;20420;-82
2021/06/08 09:01:33;;;;;;;2.15;1.95;;;30.80;68.40;;;;;;4876568;29;20408;-82
2021/06/08 09:03:59;;;;;;;2.28;2.08;;;30.90;71.70;;;;;;4875365;29;20960;-82
2021/06/08 09:06:25;;;;;;;2.00;1.90;;;31.20;64.40;;;;;;4855476;29;20823;-82
2021/06/08 09:08:51;;;;;;;7.25;2.50;;;31.20;67.20;;;;;;4842009;29;20405;-86
2021/06/08 09:11:18;;;;;;;2.30;2.10;;;31.50;65.50;;;;;;4894630;29;20407;-82
2021/06/08 09:13:44;;;;;;;2.63;2.20;;;31.60;64.80;;;;;;4877926;29;20448;-82
2021/06/08 09:16:10;;;;;;;2.25;2.15;;;31.90;66.70;;;;;;4875048;29;20442;-87
2021/06/08 09:18:36;;;;;;;2.40;2.03;;;31.90;63.60;;;;;;4892560;29;20869;-81
2021/06/08 09:21:19;;;;;;;2.80;2.50;;;31.90;64.90;;;;;;4863999;29;20429;-82
2021/06/08 09:23:45;;;;;;;2.20;2.10;;;32.00;58.90;;;;;;4885609;29;20460;-83
2021/06/08 09:26:11;;;;;;;2.10;2.00;;;31.80;59.90;;;;;;4870322;29;20404;-83
2021/06/08 09:28:38;;;;;;;2.55;2.35;;;32.10;61.30;;;;;;4879351;29;20468;-82
2021/06/08 09:31:15;;;;;;;1.90;1.80;;;32.30;59.60;;;;;;4877331;29;20409;-83
2021/06/08 09:33:52;;;;;;;1.90;1.80;;;32.50;57.60;;;;;;4877822;29;20413;-83
2021/06/08 09:36:23;;;;;;;2.03;1.92;;;33.00;57.50;;;;;;4850052;29;20413;-82
2021/06/08 09:38:52;;;;;;;2.00;1.90;;;33.30;57.30;;;;;;4890782;29;20411;-83
2021/06/08 09:41:26;;;;;;;2.00;1.90;;;33.00;57.10;;;;;;4872860;29;20463;-81
2021/06/08 09:44:06;;;;;;;2.90;2.65;;;33.10;57.00;;;;;;4892327;29;20420;-85
2021/06/08 09:46:56;;;;;;;2.25;2.05;;;32.80;56.10;;;;;;4898758;29;20922;-83
2021/06/08 09:49:31;;;;;;;2.10;2.00;;;33.00;57.60;;;;;;4845360;29;20409;-83
2021/06/08 09:51:57;;;;;;;1.92;1.83;;;33.50;57.10;;;;;;4869887;29;20427;-83
2021/06/08 09:54:29;;;;;;;2.72;2.53;;;33.50;56.90;;;;;;4875163;29;20928;-83
2021/06/08 09:57:32;;;;;;;2.10;2.00;;;33.70;57.00;;;;;;4875542;29;20416;-86
2021/06/08 10:00:00;;;;;;;2.28;2.10;;;33.90;56.20;;;;;;4841498;29;20415;-86
2021/06/08 10:02:38;;;;;;;2.20;2.08;;;33.90;54.70;;;;;;4882132;29;20443;-86
2021/06/08 10:05:27;;;;;;;3.92;2.45;;;34.10;54.70;;;;;;4888762;29;20413;-91
2021/06/08 10:08:00;;;;;;;2.40;2.20;;;34.10;54.60;;;;;;4870674;29;20415;-87
2021/06/08 10:10:46;;;;;;;2.40;2.20;;;34.20;54.00;;;;;;4883991;29;20396;-86
2021/06/08 10:13:19;;;;;;;2.40;2.20;;;34.60;53.70;;;;;;4880127;29;20411;-87
2021/06/08 10:15:58;;;;;;;2.30;2.20;;;34.30;53.00;;;;;;4863201;29;20964;-87
2021/06/08 10:18:26;;;;;;;2.70;2.30;;;33.90;51.40;;;;;;4914583;29;20428;-86
2021/06/08 10:20:54;;;;;;;2.13;2.03;;;33.70;51.20;;;;;;4869381;29;20436;-84
2021/06/08 10:23:30;;;;;;;2.40;2.20;;;33.60;53.00;;;;;;4880646;29;20429;-88
2021/06/08 10:26:02;;;;;;;3.00;2.50;;;33.50;54.00;;;;;;4889236;29;20537;-84
2021/06/08 10:28:28;;;;;;;2.47;2.30;;;33.50;53.70;;;;;;4886371;29;20413;-88
2021/06/08 10:30:54;;;;;;;2.45;2.30;;;33.40;54.60;;;;;;4883654;29;20413;-86
2021/06/08 10:33:22;;;;;;;2.37;2.17;;;33.90;52.50;;;;;;4887073;29;20414;-87
2021/06/08 10:35:48;;;;;;;2.53;2.20;;;33.50;53.80;;;;;;4906622;29;20509;-86
2021/06/08 10:38:14;;;;;;;2.38;2.25;;;32.80;53.70;;;;;;4889179;29;20497;-88
2021/06/08 10:40:42;;;;;;;1.90;1.80;;;32.90;53.30;;;;;;4876645;29;20404;-85
2021/06/08 10:43:19;;;;;;;2.72;2.53;;;32.70;55.40;;;;;;4869449;29;25507;-83
2021/06/08 10:45:46;;;;;;;2.50;2.40;;;32.30;52.40;;;;;;4883064;29;20483;-86
2021/06/08 10:48:18;;;;;;;2.53;2.33;;;31.90;55.60;;;;;;4864497;29;20626;-86
2021/06/08 10:50:48;;;;;;;2.20;2.00;;;31.50;56.50;;;;;;4880764;29;20593;-86
2021/06/08 10:53:37;;;;;;;2.55;2.35;;;31.80;55.30;;;;;;4893676;29;20413;-84
2021/06/08 10:56:20;;;;;;;2.08;1.98;;;32.10;57.10;;;;;;4263191;29;10001356;-83
2021/06/08 10:59:01;;;;;;;2.30;2.10;;;32.20;53.40;;;;;;4727109;29;5002057;-84
2021/06/08 11:01:31;;;;;;;2.63;2.43;;;32.00;55.00;;;;;;4882801;29;20497;-87
2021/06/08 11:03:57;;;;;;;2.33;2.20;;;32.10;54.80;;;;;;4903713;29;20511;-84
2021/06/08 11:06:48;;;;;;;2.35;2.15;;;32.00;55.20;;;;;;4896918;29;20476;-87
2021/06/08 11:09:23;;;;;;;2.22;2.10;;;32.10;56.40;;;;;;4913251;29;20800;-86
2021/06/08 11:11:56;;;;;;;2.25;2.13;;;32.50;54.70;;;;;;4888938;29;20402;-84
2021/06/08 11:17:05;;;;;;;2.30;2.10;;;32.80;53.70;;;;;;4911041;29;20420;-81
2021/06/08 11:19:41;;;;;;;2.20;2.00;;;32.50;55.40;;;;;;4879620;29;20405;-84
2021/06/08 11:22:07;;;;;;;2.00;1.90;;;32.30;54.30;;;;;;4886928;29;20476;-84
2021/06/08 11:24:46;;;;;;;2.45;2.33;;;32.20;53.30;;;;;;4877640;29;20923;-84
2021/06/08 11:27:12;;;;;;;2.35;2.20;;;31.90;54.10;;;;;;4881143;29;20484;-84
2021/06/08 11:29:56;;;;;;;2.20;2.00;;;31.60;54.00;;;;;;4886230;29;20397;-87
2021/06/08 11:32:28;;;;;;;2.30;2.10;;;31.30;54.90;;;;;;4888112;29;20991;-82
2021/06/08 11:35:09;;;;;;;2.40;2.25;;;31.20;54.50;;;;;;4884533;29;20943;-83
2021/06/08 11:37:53;;;;;;;2.47;2.28;;;31.70;56.10;;;;;;4858930;29;20418;-83
2021/06/08 11:40:40;;;;;;;2.40;2.20;;;32.20;53.80;;;;;;4880241;29;20416;-83
2021/06/08 11:43:09;;;;;;;2.53;2.33;;;32.50;54.40;;;;;;4893602;29;20958;-84
2021/06/08 11:45:39;;;;;;;2.72;2.30;;;31.70;52.20;;;;;;4899003;29;20635;-86
2021/06/08 11:48:25;;;;;;;2.78;2.58;;;31.70;54.40;;;;;;4884744;29;20417;-84
2021/06/08 11:50:50;;;;;;;2.70;2.50;;;31.60;55.00;;;;;;4882294;29;20416;-84
2021/06/08 11:53:16;;;;;;;2.50;2.30;;;32.10;54.40;;;;;;4847194;29;20855;-83
2021/06/08 11:55:42;;;;;;;2.10;2.00;;;32.40;54.60;;;;;;4879635;29;20416;-83
2021/06/08 11:58:29;;;;;;;2.73;2.53;;;33.10;54.50;;;;;;4881606;29;20415;-82
2021/06/08 12:00:55;;;;;;;2.60;2.40;;;32.60;54.00;;;;;;4896954;29;20505;-82
2021/06/08 12:03:27;;;;;;;2.37;2.17;;;32.30;53.80;;;;;;4864681;29;20416;-88
2021/06/08 12:05:54;;;;;;;2.38;2.17;;;32.10;52.90;;;;;;4879874;29;20458;-83
2021/06/08 12:08:24;;;;;;;2.53;2.05;;;31.80;54.70;;;;;;4877516;29;20426;-86
2021/06/08 12:10:50;;;;;;;2.50;2.30;;;31.60;55.00;;;;;;4901362;29;20406;-87
2021/06/08 12:13:20;;;;;;;2.70;2.50;;;31.70;56.20;;;;;;4885425;29;20507;-83
2021/06/08 12:15:51;;;;;;;4.60;2.40;;;32.20;56.50;;;;;;4869652;29;20920;-82
2021/06/08 12:18:20;;;;;;;2.55;2.35;;;33.00;56.60;;;;;;4860402;29;21578;-83
2021/06/08 12:20:47;;;;;;;2.90;2.70;;;33.70;53.30;;;;;;4874471;29;20427;-83
2021/06/08 12:23:34;;;;;;;2.13;2.03;;;34.00;52.90;;;;;;4873595;29;20428;-85
2021/06/08 12:26:12;;;;;;;2.35;2.22;;;34.10;52.90;;;;;;4870809;29;20426;-83
2021/06/08 12:28:40;;;;;;;2.58;2.38;;;34.20;52.70;;;;;;4900463;29;20891;-82
2021/06/08 12:31:17;;;;;;;2.20;2.10;;;33.70;52.00;;;;;;4872706;29;20472;-82
2021/06/08 12:33:43;;;;;;;2.50;2.30;;;33.30;53.60;;;;;;4875858;29;20491;-84
2021/06/08 12:36:09;;;;;;;2.47;2.28;;;33.20;55.10;;;;;;4869994;29;20436;-86
2021/06/08 12:38:34;;;;;;;3.22;2.70;;;33.10;54.50;;;;;;4875318;29;20462;-89
2021/06/08 12:41:08;;;;;;;3.30;2.67;;;33.30;52.40;;;;;;4841830;29;20408;-85
2021/06/08 12:43:43;;;;;;;2.60;2.40;;;32.90;52.90;;;;;;4872954;29;20423;-87
2021/06/08 12:46:09;;;;;;;2.47;2.28;;;32.50;53.10;;;;;;4862714;29;20430;-83
2021/06/08 12:48:35;;;;;;;2.50;2.30;;;32.10;53.60;;;;;;4884345;29;20521;-87
2021/06/08 12:51:28;;;;;;;2.42;2.22;;;31.70;53.90;;;;;;4872393;29;20409;-85
2021/06/08 12:53:54;;;;;;;2.15;2.05;;;31.40;55.00;;;;;;4874261;29;21023;-83
2021/06/08 12:56:20;;;;;;;2.30;2.10;;;31.50;55.30;;;;;;4852485;29;20464;-83
2021/06/08 12:58:45;;;;;;;1.90;1.80;;;31.50;55.40;;;;;;4862123;29;20404;-82
2021/06/08 13:01:11;;;;;;;2.40;2.20;;;32.40;57.10;;;;;;4871186;29;20473;-82
2021/06/08 13:03:39;;;;;;;2.42;2.22;;;33.20;57.80;;;;;;4870380;29;20498;-85
2021/06/08 13:06:08;;;;;;;4.60;2.40;;;34.00;56.30;;;;;;4873521;29;20408;-83
2021/06/08 13:08:35;;;;;;;2.50;2.30;;;34.40;52.80;;;;;;4873836;29;20468;-86
2021/06/08 13:11:00;;;;;;;2.65;2.45;;;34.70;52.30;;;;;;4870142;29;20414;-82
2021/06/08 13:13:30;;;;;;;2.67;2.47;;;34.30;51.60;;;;;;4882427;29;20408;-85
2021/06/08 13:15:56;;;;;;;2.30;2.20;;;33.50;52.40;;;;;;4872917;29;20402;-84
2021/06/08 13:18:23;;;;;;;2.40;2.20;;;33.10;53.60;;;;;;4874889;29;20417;-85
2021/06/08 13:20:50;;;;;;;2.20;2.10;;;33.00;54.00;;;;;;4875942;29;20416;-83
2021/06/08 13:23:27;;;;;;;2.08;1.98;;;32.70;53.80;;;;;;4872839;29;20432;-88
2021/06/08 13:25:55;;;;;;;2.40;2.22;;;32.50;54.40;;;;;;4859380;29;20428;-82